Taiki Maru — JI3464 — position and weather

sailwx.info

Track history (hours):
 
Tides and Currents Weather Stations Pressure Air Temp Water Temp Dewpoint Dewpoint Depression Visibility Wind Speed Wind Dir Waves Ship Positions

Taiki Maru

Last reported at 2014-Aug-05 15:23 UTC. Time now 2014-Aug-22 17:47 UTC.
Position N 34°34' E 134°48'.
Warning: this ship's position is 17 days out of date.

Length 93 m; draft 5.2 m.

Type: Cargo ship. MMSI: 431300622.

Date/timePositionNaut miles runAvg speedWind from/ knotsBaromVisibWave heightAir tempDewpointWater temp
2014-Aug-05 15:23N 34°34' E 134°48'1113.4
2014-Aug-05 14:33N 34°37' E 135°01'1413.8
2014-Aug-05 13:34N 34°36' E 135°18'8 7.6
2014-Aug-05 12:29N 34°40' E 135°27'0 0.0
2014-Aug-05 11:29N 34°40' E 135°27'0 0.0
2014-Aug-05 10:29N 34°40' E 135°27'0 0.0
2014-Aug-05 09:29N 34°40' E 135°27'0 0.0
2014-Aug-05 08:23N 34°40' E 135°27'0 0.0
2014-Aug-05 07:29N 34°40' E 135°27'0 0.0
2014-Aug-05 06:29N 34°40' E 135°27'0 0.0
2014-Aug-05 05:17N 34°40' E 135°27'0 0.0
2014-Aug-05 04:05N 34°40' E 135°27'0 0.0
2014-Aug-05 03:11N 34°40' E 135°27'0 0.0
2014-Aug-05 02:29N 34°40' E 135°27'6 6.3
2014-Aug-05 01:33N 34°37' E 135°21'1212.5
2014-Aug-05 00:33N 34°28' E 135°11'1313.0
2014-Aug-04 23:33N 34°18' E 135°00'8 7.3
2014-Aug-04 22:31N 34°14' E 135°08'0 0.1
2014-Aug-04 21:31N 34°14' E 135°08'0 0.0
2014-Aug-04 20:28N 34°14' E 135°08'0 0.0
2014-Aug-04 19:28N 34°14' E 135°08'0 0.0
2014-Aug-04 18:28N 34°14' E 135°08'0 0.0
2014-Aug-04 17:31N 34°14' E 135°08'0 0.0
2014-Aug-04 16:31N 34°14' E 135°08'0 0.0
2014-Aug-04 15:31N 34°14' E 135°08'0 0.0
2014-Aug-04 14:25N 34°14' E 135°08'0 0.0
2014-Aug-04 13:31N 34°14' E 135°08'0 0.0
2014-Aug-04 12:33N 34°14' E 135°08'0 0.0
2014-Aug-04 11:33N 34°14' E 135°08'3 2.6
2014-Aug-04 10:33N 34°15' E 135°05'18 9.0
2014-Aug-04 08:33N 34°32' E 135°03'8 8.3
2014-Aug-04 07:32N 34°37' E 134°54'12 0.8
2014-Aug-03 17:06N 34°41' E 134°41'  
2014-Aug-01 02:32N 34°45' E 139°12'1513.7
2014-Aug-01 01:27N 34°55' E 139°25'1213.6
2014-Aug-01 00:33N 35°03' E 139°37'1312.8
2014-Jul-31 23:33N 35°13' E 139°46'1212.1
2014-Jul-31 22:33N 35°25' E 139°42'5 4.5
2014-Jul-31 21:32N 35°29' E 139°40'0 0.0
2014-Jul-31 20:32N 35°29' E 139°40'0 0.0
2014-Jul-31 19:32N 35°29' E 139°40'0 0.0
2014-Jul-31 18:32N 35°29' E 139°40'0 0.0
2014-Jul-31 17:32N 35°29' E 139°40'0 0.0
2014-Jul-31 16:32N 35°29' E 139°40'0 0.0
2014-Jul-31 15:32N 35°29' E 139°40'0 0.0
2014-Jul-31 14:32N 35°29' E 139°40'0 0.0
2014-Jul-31 13:32N 35°29' E 139°40'0 0.0
2014-Jul-31 12:32N 35°29' E 139°40'0 0.0
2014-Jul-31 11:32N 35°29' E 139°40'0 0.0
2014-Jul-31 10:32N 35°29' E 139°40'0 0.0
2014-Jul-31 09:32N 35°29' E 139°40'0 0.0
2014-Jul-31 08:32N 35°29' E 139°40'0 0.0
2014-Jul-31 07:32N 35°29' E 139°40'0 0.0
2014-Jul-31 06:32N 35°29' E 139°40'2 2.4
2014-Jul-31 05:33N 35°27' E 139°42'1 1.0
2014-Jul-31 04:32N 35°26' E 139°42'0 0.0
2014-Jul-31 03:32N 35°26' E 139°42'0 0.1
2014-Jul-31 02:32N 35°26' E 139°42'0 0.1
2014-Jul-31 01:32N 35°26' E 139°42'0 0.0
2014-Jul-31 00:32N 35°26' E 139°42'0 0.0
2014-Jul-30 23:32N 35°26' E 139°42'0 0.0
2014-Jul-30 22:33N 35°26' E 139°42'5 4.9
2014-Jul-30 21:33N 35°21' E 139°43'1111.4
2014-Jul-30 20:33N 35°10' E 139°46'1212.1
2014-Jul-30 19:33N 35°01' E 139°36'1413.1
2014-Jul-30 18:30N 34°53' E 139°23'  
2014-Jul-28 14:21N 34°04' E 134°55'1113.9
2014-Jul-28 13:33N 34°15' E 134°58'1211.9
2014-Jul-28 12:33N 34°25' E 135°04'1414.3
2014-Jul-28 11:33N 34°35' E 135°17'9 9.1
2014-Jul-28 10:31N 34°40' E 135°27'0 0.0
2014-Jul-28 09:31N 34°40' E 135°27'0 0.0
2014-Jul-28 08:25N 34°40' E 135°27'0 0.0
2014-Jul-28 07:25N 34°40' E 135°27'0 0.0
2014-Jul-28 06:25N 34°40' E 135°27'0 0.0
2014-Jul-28 05:31N 34°40' E 135°27'0 0.0
2014-Jul-28 04:31N 34°40' E 135°27'0 0.0
2014-Jul-28 03:31N 34°40' E 135°27'0 0.0
2014-Jul-28 02:19N 34°40' E 135°27'0 0.0
2014-Jul-28 01:19N 34°40' E 135°27'0 0.3
2014-Jul-28 00:33N 34°40' E 135°27'7 7.0
2014-Jul-27 23:33N 34°36' E 135°19'0 0.3
2014-Jul-27 22:32N 34°36' E 135°19'0 0.0
2014-Jul-27 21:33N 34°36' E 135°19'0 0.0
2014-Jul-27 20:33N 34°36' E 135°19'8 8.1
2014-Jul-27 19:32N 34°30' E 135°13'1211.7
2014-Jul-27 18:32N 34°21' E 135°03'1010.5
2014-Jul-27 17:33N 34°11' E 134°59'  
Track history (hours):
 
Tides and Currents Weather Stations Pressure Air Temp Water Temp Dewpoint Dewpoint Depression Visibility Wind Speed Wind Dir Waves Ship Positions

Taiki Maru

Last reported at 2014-Aug-05 15:23 UTC. Time now 2014-Aug-22 17:47 UTC.
Position N 34°34' E 134°48'.
Warning: this ship's position is 17 days out of date.

Length 93 m; draft 5.2 m.

Type: Cargo ship. MMSI: 431300622.

Date/timePositionNaut miles runAvg speedWind from/ knotsBaromVisibWave heightAir tempDewpointWater temp
2014-Aug-05 15:23N 34°34' E 134°48'1113.4
2014-Aug-05 14:33N 34°37' E 135°01'1413.8
2014-Aug-05 13:34N 34°36' E 135°18'8 7.6
2014-Aug-05 12:29N 34°40' E 135°27'0 0.0
2014-Aug-05 11:29N 34°40' E 135°27'0 0.0
2014-Aug-05 10:29N 34°40' E 135°27'0 0.0
2014-Aug-05 09:29N 34°40' E 135°27'0 0.0
2014-Aug-05 08:23N 34°40' E 135°27'0 0.0
2014-Aug-05 07:29N 34°40' E 135°27'0 0.0
2014-Aug-05 06:29N 34°40' E 135°27'0 0.0
2014-Aug-05 05:17N 34°40' E 135°27'0 0.0
2014-Aug-05 04:05N 34°40' E 135°27'0 0.0
2014-Aug-05 03:11N 34°40' E 135°27'0 0.0
2014-Aug-05 02:29N 34°40' E 135°27'6 6.3
2014-Aug-05 01:33N 34°37' E 135°21'1212.5
2014-Aug-05 00:33N 34°28' E 135°11'1313.0
2014-Aug-04 23:33N 34°18' E 135°00'8 7.3
2014-Aug-04 22:31N 34°14' E 135°08'0 0.1
2014-Aug-04 21:31N 34°14' E 135°08'0 0.0
2014-Aug-04 20:28N 34°14' E 135°08'0 0.0
2014-Aug-04 19:28N 34°14' E 135°08'0 0.0
2014-Aug-04 18:28N 34°14' E 135°08'0 0.0
2014-Aug-04 17:31N 34°14' E 135°08'0 0.0
2014-Aug-04 16:31N 34°14' E 135°08'0 0.0
2014-Aug-04 15:31N 34°14' E 135°08'0 0.0
2014-Aug-04 14:25N 34°14' E 135°08'0 0.0
2014-Aug-04 13:31N 34°14' E 135°08'0 0.0
2014-Aug-04 12:33N 34°14' E 135°08'0 0.0
2014-Aug-04 11:33N 34°14' E 135°08'3 2.6
2014-Aug-04 10:33N 34°15' E 135°05'18 9.0
2014-Aug-04 08:33N 34°32' E 135°03'8 8.3
2014-Aug-04 07:32N 34°37' E 134°54'12 0.8
2014-Aug-03 17:06N 34°41' E 134°41'  
2014-Aug-01 02:32N 34°45' E 139°12'1513.7
2014-Aug-01 01:27N 34°55' E 139°25'1213.6
2014-Aug-01 00:33N 35°03' E 139°37'1312.8
2014-Jul-31 23:33N 35°13' E 139°46'1212.1
2014-Jul-31 22:33N 35°25' E 139°42'5 4.5
2014-Jul-31 21:32N 35°29' E 139°40'0 0.0
2014-Jul-31 20:32N 35°29' E 139°40'0 0.0
2014-Jul-31 19:32N 35°29' E 139°40'0 0.0
2014-Jul-31 18:32N 35°29' E 139°40'0 0.0
2014-Jul-31 17:32N 35°29' E 139°40'0 0.0
2014-Jul-31 16:32N 35°29' E 139°40'0 0.0
2014-Jul-31 15:32N 35°29' E 139°40'0 0.0
2014-Jul-31 14:32N 35°29' E 139°40'0 0.0
2014-Jul-31 13:32N 35°29' E 139°40'0 0.0
2014-Jul-31 12:32N 35°29' E 139°40'0 0.0
2014-Jul-31 11:32N 35°29' E 139°40'0 0.0
2014-Jul-31 10:32N 35°29' E 139°40'0 0.0
2014-Jul-31 09:32N 35°29' E 139°40'0 0.0
2014-Jul-31 08:32N 35°29' E 139°40'0 0.0
2014-Jul-31 07:32N 35°29' E 139°40'0 0.0
2014-Jul-31 06:32N 35°29' E 139°40'2 2.4
2014-Jul-31 05:33N 35°27' E 139°42'1 1.0
2014-Jul-31 04:32N 35°26' E 139°42'0 0.0
2014-Jul-31 03:32N 35°26' E 139°42'0 0.1
2014-Jul-31 02:32N 35°26' E 139°42'0 0.1
2014-Jul-31 01:32N 35°26' E 139°42'0 0.0
2014-Jul-31 00:32N 35°26' E 139°42'0 0.0
2014-Jul-30 23:32N 35°26' E 139°42'0 0.0
2014-Jul-30 22:33N 35°26' E 139°42'5 4.9
2014-Jul-30 21:33N 35°21' E 139°43'1111.4
2014-Jul-30 20:33N 35°10' E 139°46'1212.1
2014-Jul-30 19:33N 35°01' E 139°36'1413.1
2014-Jul-30 18:30N 34°53' E 139°23'  
2014-Jul-28 14:21N 34°04' E 134°55'1113.9
2014-Jul-28 13:33N 34°15' E 134°58'1211.9
2014-Jul-28 12:33N 34°25' E 135°04'1414.3
2014-Jul-28 11:33N 34°35' E 135°17'9 9.1
2014-Jul-28 10:31N 34°40' E 135°27'0 0.0
2014-Jul-28 09:31N 34°40' E 135°27'0 0.0
2014-Jul-28 08:25N 34°40' E 135°27'0 0.0
2014-Jul-28 07:25N 34°40' E 135°27'0 0.0
2014-Jul-28 06:25N 34°40' E 135°27'0 0.0
2014-Jul-28 05:31N 34°40' E 135°27'0 0.0
2014-Jul-28 04:31N 34°40' E 135°27'0 0.0
2014-Jul-28 03:31N 34°40' E 135°27'0 0.0
2014-Jul-28 02:19N 34°40' E 135°27'0 0.0
2014-Jul-28 01:19N 34°40' E 135°27'0 0.3
2014-Jul-28 00:33N 34°40' E 135°27'7 7.0
2014-Jul-27 23:33N 34°36' E 135°19'0 0.3
2014-Jul-27 22:32N 34°36' E 135°19'0 0.0
2014-Jul-27 21:33N 34°36' E 135°19'0 0.0
2014-Jul-27 20:33N 34°36' E 135°19'8 8.1
2014-Jul-27 19:32N 34°30' E 135°13'1211.7
2014-Jul-27 18:32N 34°21' E 135°03'1010.5
2014-Jul-27 17:33N 34°11' E 134°59'  

Dump ship's entire track history